sim
Sign-in with your pilot id or email,
or register
Callsign
Passwort

Schedule Details

Flight Number: DLH2037
Departure: Berlin Tegel Airport (EDDT) at 12:00
Arrival: Munich Airport (EDDM) at 13:10
Route: Lufthansa Passenger Schedule. Enter filed route here before submitting Pirep.

Weather Information
Getting current METAR information for EDDT 262050Z 18008KT 9999 -DZ FEW006 BKN013 10/09 Q0995 NOSIG
Getting current METAR information for EDDM 262050Z 24017KT 9999 BKN022 BKN032 07/04 Q1001 NOSIG

Schedule Frequency

Route Map